Time;durP1;ratioP1;P1;durP2;ratioP2;P2;SDS_P1;SDS_P2;PMS_P1;PMS_P2;Temp;Humidity;BMP_temperature;BMP_pressure;BME280_temperature;BME280_humidity;BME280_pressure;Samples;Min_cycle;Max_cycle;Signal;HPM_P1;HPM_P2
2021/09/03 00:00:37;;;;;;;24.75;13.48;;;;;;;;;;4334892;33;20202;-86
2021/09/03 00:03:33;;;;;;;;;;;;;;;;;;;;;
2021/09/03 00:15:35;;;;;;;27.50;14.02;;;;;;;;;;4347792;33;20141;-86
2021/09/03 00:18:32;;;;;;;24.37;13.07;;;;;;;;;;4301014;33;20601;-86
2021/09/03 00:20:57;;;;;;;29.25;14.20;;;;;;;;;;4289752;33;20184;-87
2021/09/03 00:23:26;;;;;;;25.92;13.52;;;;;;;;;;4333885;33;20178;-87
2021/09/03 00:25:53;;;;;;;22.92;13.15;;;;;;;;;;4333584;33;20182;-87
2021/09/03 00:28:31;;;;;;;24.92;13.62;;;;;;;;;;4347379;33;20135;-87
2021/09/03 00:31:13;;;;;;;25.15;13.18;;;;;;;;;;4347744;33;20124;-87
2021/09/03 00:33:42;;;;;;;27.40;14.45;;;;;;;;;;4333802;33;20305;-87
2021/09/03 00:36:09;;;;;;;24.87;12.98;;;;;;;;;;4333677;33;20167;-87
2021/09/03 00:38:39;;;;;;;26.52;13.65;;;;;;;;;;4333990;33;20182;-87
2021/09/03 00:41:16;;;;;;;28.87;13.75;;;;;;;;;;4333711;33;20155;-88
2021/09/03 00:43:45;;;;;;;25.37;13.57;;;;;;;;;;4334337;33;20198;-87
2021/09/03 00:46:10;;;;;;;30.65;14.45;;;;;;;;;;4333537;33;20175;-87
2021/09/03 00:48:36;;;;;;;25.37;14.05;;;;;;;;;;4333748;33;20160;-87
2021/09/03 00:51:01;;;;;;;30.40;15.55;;;;;;;;;;4333388;33;20160;-87
2021/09/03 00:53:30;;;;;;;27.02;14.38;;;;;;;;;;4334114;33;20581;-86
2021/09/03 00:56:10;;;;;;;;;;;;;;;;;;;;;
2021/09/03 00:58:44;;;;;;;27.25;14.27;;;;;;;;;;4347514;33;20131;-87
2021/09/03 01:04:10;;;;;;;26.80;14.13;;;;;;;;;;4344777;33;20227;-87
2021/09/03 01:06:36;;;;;;;29.33;14.35;;;;;;;;;;4333281;33;20237;-87
2021/09/03 01:09:08;;;;;;;28.35;15.13;;;;;;;;;;4332552;33;20152;-86
2021/09/03 01:11:41;;;;;;;27.37;14.18;;;;;;;;;;4333502;33;20152;-87
2021/09/03 01:14:12;;;;;;;25.70;14.05;;;;;;;;;;4333444;33;20178;-87
2021/09/03 01:16:40;;;;;;;28.87;14.27;;;;;;;;;;4347120;33;20148;-87
2021/09/03 01:19:06;;;;;;;29.75;14.75;;;;;;;;;;4333265;33;20218;-87
2021/09/03 01:21:32;;;;;;;32.80;15.35;;;;;;;;;;4332999;33;20194;-86
2021/09/03 01:23:57;;;;;;;32.40;14.90;;;;;;;;;;4333479;33;20612;-86
2021/09/03 01:26:25;;;;;;;30.42;15.70;;;;;;;;;;4333368;33;20194;-86
2021/09/03 01:29:05;;;;;;;;;;;;;;;;;;;;;
2021/09/03 01:31:36;;;;;;;27.20;14.00;;;;;;;;;;4345320;33;20176;-87
2021/09/03 01:34:02;;;;;;;31.45;13.70;;;;;;;;;;4341915;33;20203;-87
2021/09/03 01:36:28;;;;;;;24.90;14.15;;;;;;;;;;4342522;33;20459;-87
2021/09/03 01:38:56;;;;;;;31.58;14.77;;;;;;;;;;4342682;33;20222;-85
2021/09/03 01:41:22;;;;;;;33.58;15.18;;;;;;;;;;4342707;33;20612;-85
2021/09/03 01:43:48;;;;;;;27.08;14.48;;;;;;;;;;4345366;33;20164;-87
2021/09/03 01:46:16;;;;;;;29.65;15.55;;;;;;;;;;4346871;33;20197;-87
2021/09/03 01:48:47;;;;;;;26.42;14.00;;;;;;;;;;4359535;33;20215;-87
2021/09/03 01:51:17;;;;;;;30.80;14.70;;;;;;;;;;4344215;33;20190;-88
2021/09/03 01:54:06;;;;;;;;;;;;;;;;;;;;;
2021/09/03 01:56:40;;;;;;;28.65;14.98;;;;;;;;;;4347872;33;20131;-86
2021/09/03 01:59:31;;;;;;;;;;;;;;;;;;;;;
2021/09/03 02:02:00;;;;;;;26.15;14.40;;;;;;;;;;4348020;32;20166;-86
2021/09/03 02:04:32;;;;;;;26.67;14.57;;;;;;;;;;4348083;33;20127;-85
2021/09/03 02:07:00;;;;;;;26.98;14.13;;;;;;;;;;4334749;33;20190;-86
2021/09/03 02:09:28;;;;;;;31.45;15.38;;;;;;;;;;4334564;33;20630;-86
2021/09/03 02:11:54;;;;;;;32.38;14.80;;;;;;;;;;4336230;33;20164;-86
2021/09/03 02:14:40;;;;;;;26.75;15.35;;;;;;;;;;4336298;33;20175;-85
2021/09/03 02:17:05;;;;;;;29.50;14.32;;;;;;;;;;4348291;33;20219;-86
2021/09/03 02:19:38;;;;;;;28.67;15.23;;;;;;;;;;4335574;33;20218;-86
2021/09/03 02:22:07;;;;;;;32.25;14.80;;;;;;;;;;4335119;33;20175;-85
2021/09/03 02:24:32;;;;;;;29.25;15.07;;;;;;;;;;4345176;33;20754;-86
2021/09/03 02:26:57;;;;;;;34.00;15.85;;;;;;;;;;4332856;33;20168;-85
2021/09/03 02:29:23;;;;;;;29.37;14.23;;;;;;;;;;4332931;33;20633;-85
2021/09/03 02:31:48;;;;;;;33.63;15.75;;;;;;;;;;4332220;33;20206;-85
2021/09/03 02:34:13;;;;;;;27.10;15.13;;;;;;;;;;4332729;33;20210;-86
2021/09/03 02:36:42;;;;;;;34.78;16.08;;;;;;;;;;4332960;33;20509;-86
2021/09/03 02:39:08;;;;;;;30.30;15.85;;;;;;;;;;4333147;33;20168;-86
2021/09/03 02:41:38;;;;;;;31.65;16.77;;;;;;;;;;4332226;33;20186;-85
2021/09/03 02:44:05;;;;;;;28.60;15.63;;;;;;;;;;4344558;33;20598;-86
2021/09/03 02:46:30;;;;;;;33.10;16.67;;;;;;;;;;4332642;33;20167;-88
2021/09/03 02:48:55;;;;;;;31.52;15.80;;;;;;;;;;4332174;33;20229;-87
2021/09/03 02:51:21;;;;;;;33.33;16.37;;;;;;;;;;4332139;33;20163;-86
2021/09/03 02:53:49;;;;;;;31.40;15.57;;;;;;;;;;4332332;33;20186;-86
2021/09/03 02:56:32;;;;;;;29.42;15.75;;;;;;;;;;4346423;33;20135;-87
2021/09/03 02:59:02;;;;;;;30.25;15.73;;;;;;;;;;4346029;33;20134;-87
2021/09/03 03:01:28;;;;;;;29.67;15.52;;;;;;;;;;4332473;33;20181;-87
2021/09/03 03:04:07;;;;;;;26.12;14.85;;;;;;;;;;4332870;33;20175;-87
2021/09/03 03:06:32;;;;;;;34.47;16.40;;;;;;;;;;4332471;33;20261;-87
2021/09/03 03:09:01;;;;;;;35.38;17.10;;;;;;;;;;4345372;33;20136;-87
2021/09/03 03:11:26;;;;;;;30.70;15.77;;;;;;;;;;4331996;33;20194;-87
2021/09/03 03:14:01;;;;;;;33.05;17.15;;;;;;;;;;4331934;33;20195;-87
2021/09/03 03:16:27;;;;;;;34.88;16.80;;;;;;;;;;4332075;33;20657;-87
2021/09/03 03:18:59;;;;;;;36.08;18.00;;;;;;;;;;4331980;33;20187;-87
2021/09/03 03:21:25;;;;;;;36.80;17.83;;;;;;;;;;4332458;33;20163;-87
2021/09/03 03:23:52;;;;;;;35.90;17.37;;;;;;;;;;4345557;33;20166;-87
2021/09/03 03:26:21;;;;;;;33.33;16.80;;;;;;;;;;4331578;33;20167;-87
2021/09/03 03:29:03;;;;;;;;;;;;;;;;;;;;;
2021/09/03 03:31:32;;;;;;;36.47;18.55;;;;;;;;;;4347322;33;20438;-88
2021/09/03 03:34:02;;;;;;;35.13;17.02;;;;;;;;;;4337702;33;20152;-87
2021/09/03 03:36:35;;;;;;;36.83;17.55;;;;;;;;;;4337090;33;20178;-87
2021/09/03 03:39:01;;;;;;;32.38;17.42;;;;;;;;;;4340980;33;20202;-87
2021/09/03 03:41:31;;;;;;;39.60;18.27;;;;;;;;;;4339654;33;20160;-87
2021/09/03 03:43:57;;;;;;;33.53;17.40;;;;;;;;;;4339347;33;20517;-86
2021/09/03 03:46:22;;;;;;;39.13;18.80;;;;;;;;;;4341294;33;20190;-86
2021/09/03 03:48:50;;;;;;;33.55;16.73;;;;;;;;;;4345683;33;20182;-86
2021/09/03 03:51:20;;;;;;;40.67;18.67;;;;;;;;;;4343584;33;20607;-87
2021/09/03 03:53:47;;;;;;;34.38;17.33;;;;;;;;;;4356291;33;20123;-88
2021/09/03 03:56:12;;;;;;;40.70;18.48;;;;;;;;;;4341866;33;20229;-86
2021/09/03 03:58:37;;;;;;;38.67;18.45;;;;;;;;;;4342088;33;20182;-87
2021/09/03 04:01:10;;;;;;;36.30;18.67;;;;;;;;;;4335410;33;20582;-87
2021/09/03 04:03:40;;;;;;;33.13;18.15;;;;;;;;;;4334857;33;20610;-85
2021/09/03 04:06:08;;;;;;;34.88;17.77;;;;;;;;;;4334836;33;20159;-85
2021/09/03 04:08:37;;;;;;;36.83;17.92;;;;;;;;;;4334804;33;20481;-85
2021/09/03 04:11:03;;;;;;;36.03;18.33;;;;;;;;;;4334089;33;20202;-86
2021/09/03 04:13:30;;;;;;;38.17;19.58;;;;;;;;;;4348557;33;20132;-86
2021/09/03 04:15:56;;;;;;;36.17;18.00;;;;;;;;;;4335606;33;20170;-86
2021/09/03 04:18:21;;;;;;;37.78;18.58;;;;;;;;;;4335494;33;20496;-86
2021/09/03 04:20:48;;;;;;;38.10;19.42;;;;;;;;;;4334033;33;20477;-85
2021/09/03 04:23:13;;;;;;;49.10;20.83;;;;;;;;;;4333988;33;20152;-86
2021/09/03 04:25:39;;;;;;;44.40;20.00;;;;;;;;;;4334028;33;20151;-86
2021/09/03 04:28:04;;;;;;;40.67;18.80;;;;;;;;;;4333835;33;20156;-86
2021/09/03 04:30:30;;;;;;;40.72;19.35;;;;;;;;;;4334213;33;20179;-86
2021/09/03 04:33:02;;;;;;;37.85;19.37;;;;;;;;;;4334023;33;20159;-87
2021/09/03 04:35:29;;;;;;;40.33;19.67;;;;;;;;;;4333797;33;20151;-86
2021/09/03 04:37:57;;;;;;;42.97;18.90;;;;;;;;;;4333849;33;20558;-86
2021/09/03 04:40:25;;;;;;;43.60;20.45;;;;;;;;;;4333857;33;20518;-86
2021/09/03 04:42:51;;;;;;;51.20;22.20;;;;;;;;;;4347431;33;20159;-86
2021/09/03 04:45:17;;;;;;;46.95;20.80;;;;;;;;;;4334591;33;20159;-87
2021/09/03 04:47:42;;;;;;;42.83;20.12;;;;;;;;;;4334229;33;20256;-86
2021/09/03 04:50:11;;;;;;;43.42;20.27;;;;;;;;;;4334029;33;20182;-86
2021/09/03 04:52:36;;;;;;;45.28;21.23;;;;;;;;;;4347738;33;20144;-87
2021/09/03 04:55:02;;;;;;;46.13;21.27;;;;;;;;;;4345816;33;20558;-86
2021/09/03 04:57:30;;;;;;;44.80;20.50;;;;;;;;;;4334113;33;20155;-84
2021/09/03 05:00:01;;;;;;;48.47;22.17;;;;;;;;;;4347436;33;20132;-86
2021/09/03 05:02:27;;;;;;;52.75;22.70;;;;;;;;;;4333403;33;20235;-86
2021/09/03 05:04:52;;;;;;;41.15;19.87;;;;;;;;;;4333155;33;20585;-87
2021/09/03 05:07:18;;;;;;;45.15;19.98;;;;;;;;;;4333690;33;20155;-88
2021/09/03 05:09:43;;;;;;;48.05;21.52;;;;;;;;;;4333991;33;20187;-87
2021/09/03 05:12:12;;;;;;;47.70;20.12;;;;;;;;;;4334318;33;20148;-85
2021/09/03 05:14:37;;;;;;;46.28;21.75;;;;;;;;;;4333881;33;20155;-86
2021/09/03 05:17:02;;;;;;;44.92;21.05;;;;;;;;;;4335222;33;20190;-86
2021/09/03 05:19:28;;;;;;;43.00;20.80;;;;;;;;;;4334073;33;20182;-88
2021/09/03 05:21:58;;;;;;;42.85;20.80;;;;;;;;;;4348820;33;20148;-86
2021/09/03 05:24:26;;;;;;;45.65;21.52;;;;;;;;;;4337314;33;20212;-86
2021/09/03 05:26:51;;;;;;;43.72;21.48;;;;;;;;;;4336027;33;20181;-87
2021/09/03 05:29:37;;;;;;;45.85;21.40;;;;;;;;;;4334813;33;20156;-87
2021/09/03 05:32:02;;;;;;;49.75;22.05;;;;;;;;;;4337278;33;20193;-86
2021/09/03 05:34:28;;;;;;;44.30;21.77;;;;;;;;;;4335435;33;20473;-85
2021/09/03 05:36:55;;;;;;;48.80;21.65;;;;;;;;;;4335096;33;20148;-86
2021/09/03 05:39:21;;;;;;;50.22;21.60;;;;;;;;;;4334238;33;20226;-86
2021/09/03 05:41:58;;;;;;;46.53;21.50;;;;;;;;;;4334544;33;20151;-86
2021/09/03 05:44:24;;;;;;;49.97;21.75;;;;;;;;;;4334481;33;20484;-86
2021/09/03 05:46:54;;;;;;;44.22;21.25;;;;;;;;;;4333529;33;20160;-85
2021/09/03 05:49:19;;;;;;;47.40;21.67;;;;;;;;;;4333619;33;20186;-85
2021/09/03 05:51:46;;;;;;;42.17;20.98;;;;;;;;;;4345200;33;20234;-87
2021/09/03 05:54:14;;;;;;;45.70;21.02;;;;;;;;;;4332930;33;20175;-85
2021/09/03 05:56:44;;;;;;;41.65;21.10;;;;;;;;;;4346794;33;20154;-84
2021/09/03 05:59:09;;;;;;;47.97;21.65;;;;;;;;;;4333150;33;20151;-86
2021/09/03 06:01:34;;;;;;;42.85;21.15;;;;;;;;;;4345097;33;20155;-86
2021/09/03 06:04:00;;;;;;;43.47;21.70;;;;;;;;;;4332907;33;20155;-86
2021/09/03 06:06:25;;;;;;;43.03;20.70;;;;;;;;;;4333092;33;20205;-88
2021/09/03 06:08:52;;;;;;;44.80;21.75;;;;;;;;;;4345092;33;20234;-86
2021/09/03 06:11:20;;;;;;;42.33;20.27;;;;;;;;;;4334267;33;20644;-86
2021/09/03 06:13:46;;;;;;;42.80;20.67;;;;;;;;;;4332826;33;20508;-86
2021/09/03 06:16:11;;;;;;;41.35;21.10;;;;;;;;;;4332650;33;20186;-84
2021/09/03 06:18:39;;;;;;;39.75;20.52;;;;;;;;;;4332698;33;20163;-86
2021/09/03 06:21:06;;;;;;;40.97;22.02;;;;;;;;;;4332572;33;20177;-86
2021/09/03 06:23:31;;;;;;;40.12;21.20;;;;;;;;;;4332449;33;20696;-86
2021/09/03 06:25:57;;;;;;;45.90;22.17;;;;;;;;;;4332092;33;20160;-86
2021/09/03 06:28:25;;;;;;;40.95;21.48;;;;;;;;;;4332449;33;20233;-86
2021/09/03 06:30:50;;;;;;;40.58;20.50;;;;;;;;;;4332222;33;20148;-87
2021/09/03 06:33:15;;;;;;;41.97;20.27;;;;;;;;;;4332323;33;20225;-86
2021/09/03 06:35:40;;;;;;;41.75;20.15;;;;;;;;;;4332275;33;20163;-86
2021/09/03 06:38:06;;;;;;;41.78;21.17;;;;;;;;;;4332425;33;20477;-87
2021/09/03 06:40:34;;;;;;;42.75;20.25;;;;;;;;;;4346180;33;20132;-85
2021/09/03 06:42:59;;;;;;;53.17;22.20;;;;;;;;;;4332350;33;20151;-87
2021/09/03 06:45:24;;;;;;;37.97;20.70;;;;;;;;;;4332013;33;20155;-86
2021/09/03 06:47:53;;;;;;;42.95;19.77;;;;;;;;;;4332027;33;20215;-86
2021/09/03 06:50:18;;;;;;;37.08;21.30;;;;;;;;;;4344249;33;20152;-86
2021/09/03 06:52:48;;;;;;;37.13;20.23;;;;;;;;;;4332260;33;20186;-86
2021/09/03 06:55:18;;;;;;;39.38;19.10;;;;;;;;;;4332179;33;20213;-87
2021/09/03 06:57:45;;;;;;;39.25;20.42;;;;;;;;;;4332173;33;20194;-86
2021/09/03 07:00:11;;;;;;;38.30;20.05;;;;;;;;;;4344497;33;20167;-86
2021/09/03 07:02:38;;;;;;;40.40;20.80;;;;;;;;;;4346090;33;20189;-86
2021/09/03 07:05:10;;;;;;;40.55;21.17;;;;;;;;;;4331616;33;20164;-85
2021/09/03 07:07:45;;;;;;;37.22;20.67;;;;;;;;;;4335281;33;20527;-86
2021/09/03 07:10:13;;;;;;;37.85;20.27;;;;;;;;;;4335766;33;20492;-85
2021/09/03 07:12:38;;;;;;;37.92;21.25;;;;;;;;;;4335098;33;20322;-86
2021/09/03 07:15:08;;;;;;;38.13;19.87;;;;;;;;;;4348217;33;20525;-85
2021/09/03 07:17:34;;;;;;;37.55;22.08;;;;;;;;;;4334932;33;20615;-87
2021/09/03 07:20:02;;;;;;;35.08;20.05;;;;;;;;;;4335198;33;20162;-85
2021/09/03 07:22:30;;;;;;;34.20;19.52;;;;;;;;;;4334566;33;20163;-86
2021/09/03 07:24:59;;;;;;;32.60;19.75;;;;;;;;;;4335058;33;20210;-87
2021/09/03 07:27:27;;;;;;;36.60;20.92;;;;;;;;;;4335319;33;20163;-86
2021/09/03 07:29:55;;;;;;;39.10;20.42;;;;;;;;;;4334736;33;20301;-86
2021/09/03 07:32:27;;;;;;;35.42;19.17;;;;;;;;;;4348610;33;20189;-86
2021/09/03 07:34:54;;;;;;;31.85;19.20;;;;;;;;;;4334613;33;20175;-86
2021/09/03 07:37:19;;;;;;;32.53;19.67;;;;;;;;;;4334322;33;20597;-87
2021/09/03 07:39:47;;;;;;;31.70;18.70;;;;;;;;;;4348262;33;20128;-86
2021/09/03 07:42:13;;;;;;;35.15;20.30;;;;;;;;;;4347942;33;20638;-86
2021/09/03 07:44:38;;;;;;;36.42;20.65;;;;;;;;;;4334786;33;20155;-82
2021/09/03 07:47:06;;;;;;;36.40;21.27;;;;;;;;;;4346976;33;20159;-86
2021/09/03 07:49:32;;;;;;;34.30;19.50;;;;;;;;;;4334648;33;20190;-86
2021/09/03 07:51:57;;;;;;;36.95;19.45;;;;;;;;;;4334412;33;20151;-86
2021/09/03 07:54:22;;;;;;;33.28;18.98;;;;;;;;;;4334239;33;20170;-87
2021/09/03 07:56:51;;;;;;;33.20;18.67;;;;;;;;;;4334913;33;20178;-86
2021/09/03 07:59:16;;;;;;;35.63;20.23;;;;;;;;;;4334115;33;20155;-85
2021/09/03 08:01:44;;;;;;;31.73;19.00;;;;;;;;;;4334454;33;20179;-87
2021/09/03 08:04:09;;;;;;;32.38;18.98;;;;;;;;;;4334078;33;20234;-85
2021/09/03 08:06:43;;;;;;;32.65;19.20;;;;;;;;;;4333871;33;20171;-86
2021/09/03 08:09:08;;;;;;;31.37;19.35;;;;;;;;;;4334050;33;20613;-85
2021/09/03 08:11:36;;;;;;;28.77;18.48;;;;;;;;;;4334427;33;20155;-86
2021/09/03 08:14:02;;;;;;;30.08;18.67;;;;;;;;;;4334227;33;20670;-87
2021/09/03 08:16:30;;;;;;;31.60;17.35;;;;;;;;;;4334418;33;20164;-86
2021/09/03 08:18:55;;;;;;;29.77;18.37;;;;;;;;;;4345629;33;20250;-87
2021/09/03 08:21:22;;;;;;;30.15;18.33;;;;;;;;;;4334107;33;20156;-81
2021/09/03 08:23:47;;;;;;;30.33;17.27;;;;;;;;;;4334239;33;20155;-86
2021/09/03 08:26:15;;;;;;;27.70;17.45;;;;;;;;;;4334411;33;20194;-85
2021/09/03 08:28:43;;;;;;;30.55;17.87;;;;;;;;;;4334162;33;20155;-87
2021/09/03 08:31:14;;;;;;;27.83;17.17;;;;;;;;;;4333945;33;20217;-85
2021/09/03 08:33:42;;;;;;;29.75;17.83;;;;;;;;;;4334178;33;20282;-84
2021/09/03 08:36:16;;;;;;;35.25;18.00;;;;;;;;;;4333857;33;20186;-86
2021/09/03 08:38:45;;;;;;;30.42;18.67;;;;;;;;;;4334514;33;20189;-84
2021/09/03 08:41:10;;;;;;;28.17;17.62;;;;;;;;;;4333768;33;20214;-85
2021/09/03 08:44:07;;;;;;;27.95;17.23;;;;;;;;;;4333950;33;20164;-85
2021/09/03 08:46:35;;;;;;;30.48;17.40;;;;;;;;;;4346385;33;20191;-86
2021/09/03 08:49:01;;;;;;;32.15;17.58;;;;;;;;;;4333409;33;20671;-86
2021/09/03 08:51:33;;;;;;;28.33;17.62;;;;;;;;;;4333571;33;20151;-85
2021/09/03 08:53:58;;;;;;;25.77;16.55;;;;;;;;;;4333394;33;20464;-86
2021/09/03 08:56:27;;;;;;;25.75;16.37;;;;;;;;;;4333771;33;20175;-84
2021/09/03 08:58:52;;;;;;;26.27;15.65;;;;;;;;;;4333472;33;20152;-85
2021/09/03 09:01:18;;;;;;;25.92;16.05;;;;;;;;;;4334242;33;20155;-86
2021/09/03 09:04:11;;;;;;;23.65;15.48;;;;;;;;;;4336463;33;20198;-86
2021/09/03 09:06:39;;;;;;;24.90;15.90;;;;;;;;;;4362536;32;20182;-86
2021/09/03 09:09:06;;;;;;;23.70;15.48;;;;;;;;;;4362880;32;20158;-86
2021/09/03 09:11:37;;;;;;;26.98;16.17;;;;;;;;;;4362825;32;20177;-85
2021/09/03 09:14:12;;;;;;;24.23;15.45;;;;;;;;;;4375637;32;20202;-86
2021/09/03 09:16:40;;;;;;;25.35;16.00;;;;;;;;;;4377556;32;20127;-83
2021/09/03 09:19:07;;;;;;;23.20;15.68;;;;;;;;;;4363324;32;20182;-85
2021/09/03 09:21:42;;;;;;;23.58;14.75;;;;;;;;;;4375598;32;20216;-85
2021/09/03 09:24:18;;;;;;;23.92;15.32;;;;;;;;;;4375599;32;20151;-86
2021/09/03 09:26:54;;;;;;;24.58;15.52;;;;;;;;;;4375820;32;20187;-85
2021/09/03 09:29:36;;;;;;;22.90;14.15;;;;;;;;;;4374939;32;20151;-87
2021/09/03 09:32:19;;;;;;;26.83;14.87;;;;;;;;;;4375618;32;20225;-85
2021/09/03 09:34:46;;;;;;;25.15;15.18;;;;;;;;;;4375457;32;20178;-86
2021/09/03 09:37:16;;;;;;;23.65;15.65;;;;;;;;;;4375356;32;20155;-84
2021/09/03 09:40:01;;;;;;;24.65;13.93;;;;;;;;;;4375413;32;20177;-86
2021/09/03 09:42:35;;;;;;;23.48;14.40;;;;;;;;;;4362571;32;20233;-85
2021/09/03 09:45:33;;;;;;;25.50;13.95;;;;;;;;;;4375229;32;20184;-84
2021/09/03 09:49:56;;;;;;;21.65;13.30;;;;;;;;;;4400262;32;20224;-75
2021/09/03 09:52:35;;;;;;;25.83;14.82;;;;;;;;;;4401977;32;20498;-76
2021/09/03 09:55:06;;;;;;;19.80;14.10;;;;;;;;;;4401207;32;20857;-78
2021/09/03 09:57:38;;;;;;;21.77;14.13;;;;;;;;;;4401325;32;20181;-76
2021/09/03 10:00:16;;;;;;;21.08;14.60;;;;;;;;;;4400380;32;20189;-75
2021/09/03 10:02:42;;;;;;;24.30;14.02;;;;;;;;;;4402345;32;20146;-76
2021/09/03 10:08:04;;;;;;;25.98;14.13;;;;;;;;;;4409271;27;20161;-77
2021/09/03 10:10:30;;;;;;;19.62;13.95;;;;;;;;;;4385716;32;20178;-75
2021/09/03 10:12:55;;;;;;;23.23;14.00;;;;;;;;;;4386532;32;20138;-76
2021/09/03 10:15:20;;;;;;;23.93;14.83;;;;;;;;;;4387353;32;20170;-77
2021/09/03 10:17:46;;;;;;;20.85;13.55;;;;;;;;;;4387461;32;20269;-77
2021/09/03 10:20:13;;;;;;;19.45;13.50;;;;;;;;;;4386195;32;20178;-77
2021/09/03 10:22:42;;;;;;;21.95;13.85;;;;;;;;;;4385633;32;20158;-77
2021/09/03 10:31:24;;;;;;;20.27;12.95;;;;;;;;;;4327944;33;20174;-77
2021/09/03 10:34:26;;;;;;;21.25;13.07;;;;;;;;;;4326585;33;20492;-76
2021/09/03 10:36:55;;;;;;;25.95;14.27;;;;;;;;;;4327340;33;20206;-76
2021/09/03 10:39:38;;;;;;;22.95;13.70;;;;;;;;;;4329514;33;20151;-76
2021/09/03 10:42:35;;;;;;;22.87;13.43;;;;;;;;;;4336377;33;20150;-77
2021/09/03 10:45:14;;;;;;;22.17;13.65;;;;;;;;;;4328037;33;20132;-77
2021/09/03 10:47:45;;;;;;;23.45;13.45;;;;;;;;;;4326922;33;20221;-78
2021/09/03 10:50:20;;;;;;;22.08;14.00;;;;;;;;;;4326908;33;20136;-77
2021/09/03 10:53:07;;;;;;;21.52;13.57;;;;;;;;;;4327307;33;20132;-78
2021/09/03 10:55:51;;;;;;;20.37;11.90;;;;;;;;;;4326346;33;20147;-77
2021/09/03 10:58:35;;;;;;;20.92;12.93;;;;;;;;;;4326971;33;20450;-77
2021/09/03 11:01:26;;;;;;;19.83;13.00;;;;;;;;;;4318970;33;20163;-77
2021/09/03 11:03:54;;;;;;;23.60;13.30;;;;;;;;;;4314990;33;20187;-77
2021/09/03 11:06:39;;;;;;;18.42;11.50;;;;;;;;;;4316839;33;20158;-78
2021/09/03 11:09:17;;;;;;;17.62;11.10;;;;;;;;;;4316179;33;20140;-77
2021/09/03 11:11:47;;;;;;;22.00;12.50;;;;;;;;;;4317206;33;20535;-77
2021/09/03 11:14:22;;;;;;;16.15;10.80;;;;;;;;;;4316772;33;20136;-77
2021/09/03 11:16:48;;;;;;;18.12;10.32;;;;;;;;;;4316017;33;20155;-77
2021/09/03 11:19:15;;;;;;;16.83;10.77;;;;;;;;;;4316486;33;20615;-77
2021/09/03 11:21:50;;;;;;;20.10;12.30;;;;;;;;;;4315274;33;20529;-80
2021/09/03 11:24:17;;;;;;;14.40;10.23;;;;;;;;;;4313424;33;20598;-77
2021/09/03 11:26:43;;;;;;;15.98;10.63;;;;;;;;;;4323919;33;20179;-76
2021/09/03 11:29:25;;;;;;;19.77;10.77;;;;;;;;;;4329247;33;20179;-76
2021/09/03 11:31:55;;;;;;;16.10;10.32;;;;;;;;;;4329986;33;20148;-76
2021/09/03 11:34:39;;;;;;;17.00;11.25;;;;;;;;;;4333208;33;20148;-73
2021/09/03 11:37:04;;;;;;;17.15;11.50;;;;;;;;;;4331072;33;20154;-74
2021/09/03 11:39:29;;;;;;;17.73;10.93;;;;;;;;;;4332458;33;20206;-75
2021/09/03 11:41:54;;;;;;;15.05;10.50;;;;;;;;;;4332490;33;20252;-74
2021/09/03 11:44:20;;;;;;;15.00;10.60;;;;;;;;;;4333371;33;20133;-76
2021/09/03 11:46:45;;;;;;;14.30;10.27;;;;;;;;;;4332439;33;20148;-77
2021/09/03 11:49:10;;;;;;;15.82;10.40;;;;;;;;;;4331024;33;20154;-76
2021/09/03 11:51:35;;;;;;;16.55;10.45;;;;;;;;;;4330593;33;20230;-76
2021/09/03 11:54:02;;;;;;;19.13;10.97;;;;;;;;;;4331002;33;20463;-78
2021/09/03 11:56:27;;;;;;;15.50;10.25;;;;;;;;;;4330689;33;20237;-77
2021/09/03 11:58:55;;;;;;;17.42;11.45;;;;;;;;;;4330397;33;20211;-76
2021/09/03 12:01:20;;;;;;;16.23;10.73;;;;;;;;;;4330523;33;20162;-76
2021/09/03 12:03:48;;;;;;;16.73;10.00;;;;;;;;;;4331112;33;20128;-77
2021/09/03 12:06:15;;;;;;;18.35;10.32;;;;;;;;;;4330511;33;20536;-78
2021/09/03 12:08:40;;;;;;;15.57;10.10;;;;;;;;;;4330569;33;20143;-78
2021/09/03 12:11:20;;;;;;;15.47;10.17;;;;;;;;;;4340206;27;20352;-78
2021/09/03 12:13:56;;;;;;;15.27;10.25;;;;;;;;;;4359487;32;20247;-78
2021/09/03 12:16:30;;;;;;;16.92;10.82;;;;;;;;;;4360888;32;20213;-77
2021/09/03 12:18:59;;;;;;;14.40;11.12;;;;;;;;;;4359909;32;20208;-77
2021/09/03 12:21:27;;;;;;;15.02;9.02;;;;;;;;;;4361330;32;20209;-76
2021/09/03 12:23:58;;;;;;;15.35;10.27;;;;;;;;;;4362903;32;20198;-78
2021/09/03 12:26:25;;;;;;;15.30;10.68;;;;;;;;;;4362965;32;20218;-77
2021/09/03 12:28:52;;;;;;;17.02;10.60;;;;;;;;;;4363666;32;20175;-77
2021/09/03 12:31:19;;;;;;;14.07;10.38;;;;;;;;;;4362959;32;20178;-77
2021/09/03 12:33:46;;;;;;;14.38;10.75;;;;;;;;;;4361997;32;20178;-77
2021/09/03 12:36:17;;;;;;;14.47;10.27;;;;;;;;;;4651542;27;20197;-84
2021/09/03 12:38:43;;;;;;;15.07;10.15;;;;;;;;;;4332326;33;20192;-86
2021/09/03 12:41:13;;;;;;;14.60;9.25;;;;;;;;;;4347688;33;20253;-86
2021/09/03 12:43:41;;;;;;;15.20;10.23;;;;;;;;;;4334878;33;20201;-85
2021/09/03 12:46:14;;;;;;;12.93;9.15;;;;;;;;;;4333817;33;20482;-87
2021/09/03 12:48:40;;;;;;;14.63;10.57;;;;;;;;;;4334558;33;20156;-85
2021/09/03 12:51:11;;;;;;;14.87;10.75;;;;;;;;;;4334419;33;20163;-83
2021/09/03 12:53:36;;;;;;;18.42;11.90;;;;;;;;;;4334075;33;20178;-83
2021/09/03 12:56:02;;;;;;;13.90;10.35;;;;;;;;;;4333851;33;20156;-86
2021/09/03 12:58:29;;;;;;;19.50;12.50;;;;;;;;;;4346735;33;20218;-84
2021/09/03 13:00:57;;;;;;;14.80;10.70;;;;;;;;;;4346145;33;20147;-84
2021/09/03 13:03:22;;;;;;;18.95;11.12;;;;;;;;;;4346294;33;20144;-85
2021/09/03 13:05:47;;;;;;;18.45;11.43;;;;;;;;;;4346420;33;20576;-85
2021/09/03 13:08:13;;;;;;;18.50;11.82;;;;;;;;;;4346052;33;20169;-85
2021/09/03 13:10:38;;;;;;;16.93;12.00;;;;;;;;;;4347272;33;20529;-85
2021/09/03 13:13:03;;;;;;;14.45;10.48;;;;;;;;;;4346652;33;20351;-84
2021/09/03 13:15:31;;;;;;;20.25;10.73;;;;;;;;;;4332240;33;20558;-86
2021/09/03 13:17:56;;;;;;;18.12;12.00;;;;;;;;;;4332158;33;20163;-85
2021/09/03 13:20:25;;;;;;;18.05;11.25;;;;;;;;;;4346031;33;20604;-86
2021/09/03 13:22:50;;;;;;;16.58;11.55;;;;;;;;;;4332559;33;20281;-84
2021/09/03 13:25:21;;;;;;;15.10;11.18;;;;;;;;;;4346203;33;20132;-85
2021/09/03 13:27:49;;;;;;;16.20;10.38;;;;;;;;;;4332536;33;20148;-85
2021/09/03 13:30:14;;;;;;;16.87;10.98;;;;;;;;;;4332643;33;20600;-85
2021/09/03 13:32:48;;;;;;;16.62;10.82;;;;;;;;;;4346146;33;20183;-85
2021/09/03 13:35:31;;;;;;;19.60;11.60;;;;;;;;;;4346126;33;20131;-85
2021/09/03 13:37:59;;;;;;;17.35;10.05;;;;;;;;;;4346009;33;20238;-85
2021/09/03 13:40:24;;;;;;;18.50;11.57;;;;;;;;;;4346826;33;20564;-85
2021/09/03 13:42:51;;;;;;;21.60;11.32;;;;;;;;;;4345789;33;20175;-84
2021/09/03 13:45:37;;;;;;;16.95;9.93;;;;;;;;;;4331684;33;20191;-84
2021/09/03 13:48:09;;;;;;;15.45;10.90;;;;;;;;;;4346612;33;20132;-86
2021/09/03 13:50:36;;;;;;;20.02;12.45;;;;;;;;;;4333123;33;20233;-84
2021/09/03 13:53:02;;;;;;;14.73;10.75;;;;;;;;;;4347054;33;20684;-84
2021/09/03 13:55:28;;;;;;;18.70;10.77;;;;;;;;;;4347239;33;20150;-84
2021/09/03 13:57:53;;;;;;;17.75;11.27;;;;;;;;;;4348021;33;20171;-85
2021/09/03 14:00:30;;;;;;;18.05;10.85;;;;;;;;;;4332580;33;20164;-85
2021/09/03 14:02:57;;;;;;;16.77;10.82;;;;;;;;;;4348799;33;20135;-85
2021/09/03 14:05:26;;;;;;;15.60;10.05;;;;;;;;;;4334218;33;20214;-85
2021/09/03 14:08:00;;;;;;;17.20;10.70;;;;;;;;;;4346807;33;20155;-84
2021/09/03 14:10:37;;;;;;;17.83;11.45;;;;;;;;;;4334381;33;20159;-85
2021/09/03 14:13:06;;;;;;;15.88;10.77;;;;;;;;;;4347621;33;20138;-84
2021/09/03 14:15:31;;;;;;;16.33;10.75;;;;;;;;;;4345433;33;20186;-85
2021/09/03 14:18:06;;;;;;;21.42;10.63;;;;;;;;;;4332132;33;20159;-85
2021/09/03 14:20:32;;;;;;;17.98;10.52;;;;;;;;;;4345836;33;20414;-86
2021/09/03 14:22:57;;;;;;;17.62;10.23;;;;;;;;;;4332214;33;20181;-85
2021/09/03 14:25:23;;;;;;;16.75;10.60;;;;;;;;;;4331840;33;20608;-85
2021/09/03 14:27:48;;;;;;;15.10;9.63;;;;;;;;;;4345060;33;20550;-85
2021/09/03 14:30:20;;;;;;;14.73;9.98;;;;;;;;;;4333064;33;20242;-82
2021/09/03 14:32:48;;;;;;;15.32;9.93;;;;;;;;;;4345252;33;20135;-85
2021/09/03 14:35:14;;;;;;;17.35;10.02;;;;;;;;;;4346265;33;20482;-85
2021/09/03 14:37:39;;;;;;;14.50;10.32;;;;;;;;;;4347643;33;20190;-85
2021/09/03 14:40:05;;;;;;;16.90;10.32;;;;;;;;;;4347868;33;20132;-84
2021/09/03 14:42:31;;;;;;;23.58;10.60;;;;;;;;;;4347457;33;20226;-83
2021/09/03 14:44:56;;;;;;;16.15;10.27;;;;;;;;;;4334119;33;20562;-84
2021/09/03 14:47:21;;;;;;;16.00;9.45;;;;;;;;;;4334494;33;20186;-84
2021/09/03 14:49:46;;;;;;;15.18;10.18;;;;;;;;;;4348183;33;20489;-84
2021/09/03 14:52:15;;;;;;;17.83;10.55;;;;;;;;;;4348153;33;20513;-84
2021/09/03 14:54:40;;;;;;;20.90;11.12;;;;;;;;;;4347590;33;20261;-83
2021/09/03 14:57:05;;;;;;;19.67;10.57;;;;;;;;;;4334909;33;20249;-84
2021/09/03 14:59:31;;;;;;;17.33;10.60;;;;;;;;;;4334893;33;20283;-84